Pagrindinis puslapis
METAR-TAF:

METAR-TAF

Oro uostai :

Antofagasta, Čilė

platuma: 23-26S, ilguma: 070-26W, Aukštis: 135 m

Dabartinis oras

Ataskaita buvo paskelbta 18 minutes, ne 09:00 UTC
Vėjas 5 kt iš Vakarų/Pietvakarių
Temperatūra 12°C
Drėgmė 67%
Slėgis 1016 hPa
Matomumas 10 km arba daugiau
Apsiniaukę ne aukštis 2200 ft

METAR: SCFA 180900Z 25005KT 9999 OVC022 12/06 Q1016 NOSIG

Laikas: 06:18 (09:18 UTC)

Prognozė

Ataskaita buvo paskelbta 4 valandos ir 48 minutes, ne 04:30 UTC
Prognozė galioja nuo 18 metu 06 UTC su 19 metu 06 UTC
Vėjas 8 kt iš Pietų
Matomumas 10 km arba daugiau
Su prošvaistėmis ne aukštis 2500 ft
Tapsmas
nuo 18 metu 15 UTC su 18 metu 17 UTC
Vėjas 14 kt iš Pietvakarių
Mažai debesys ne aukštis 1700 ft
Tapsmas
nuo 19 metu 04 UTC su 19 metu 06 UTC
Vėjas 8 kt iš Pietų
Apsiniaukę ne aukštis 1500 ft

TAF: SCFA 180430Z 1806/1906 19008KT 9999 BKN025 TN13/1806Z TX16/1818Z BECMG 1815/1817 22014KT FEW017 BECMG 1904/1906 19008KT OVC015

Orai ataskaitas ir orų prognozės (METAR, TAF).

turimą stotys yra geltonos ir raudonos taškus žemėlapyje.

Perkelti pele per norėdami pamatyti stoties vardą.

Tada spustelėkite, norėdami matyti oro stebėjimo ir prognozės.

Norėdami pakeisti žemėlapį: spustelėkite ant žalios mygtukų su juodo kryžiaus žemyn,; žalią mygtuką su brūkšneliu, jei norite nutolinti; arba žalių rodyklių gretimoms žemėlapius.


METAR-TAF: